Terminal Aerodrome Forecast
Issued by NWS

Home | Current Version | Previous Version | Text Only | Print | Product List | Glossary On
Versions: 1 2 3 4 5 6 7 8 9 10 11 12 13 14 15 16 17 18 19 20
554
FTUS43 KLSX 181120
TAFUIN
TAF
KUIN 181120Z 1812/1912 24004KT P6SM OVC012
      TEMPO 1812/1816 OVC008
     FM182000 20007KT P6SM SCT015
     FM190000 18005KT P6SM SCT200
     FM190800 15005KT P6SM BKN080
     FM191000 14005KT P6SM VCSH BKN025=

USA.gov is the U.S. government's official web portal to all federal, state and local government web resources and services.